Time;durP1;ratioP1;P1;durP2;ratioP2;P2;SDS_P1;SDS_P2;PMS_P1;PMS_P2;Temp;Humidity;BMP_temperature;BMP_pressure;BME280_temperature;BME280_humidity;BME280_pressure;Samples;Min_cycle;Max_cycle;Signal;HPM_P1;HPM_P2
2022/07/31 00:00:22;;;;;;;4.85;1.20;;;;;;;22.54;44.36;100051.38;5011411;28;20054;-62
2022/07/31 00:02:49;;;;;;;3.90;1.35;;;;;;;22.47;44.77;100052.00;4993991;28;20049;-62
2022/07/31 00:05:16;;;;;;;1.90;1.20;;;;;;;22.41;44.92;100044.59;4994359;28;20053;-64
2022/07/31 00:07:43;;;;;;;2.08;1.23;;;;;;;22.36;45.16;100046.91;4997766;28;20513;-62
2022/07/31 00:10:09;;;;;;;10.13;1.73;;;;;;;22.30;45.07;100044.84;5014846;28;20116;-64
2022/07/31 00:12:36;;;;;;;2.40;1.40;;;;;;;22.23;45.17;100042.81;4997750;28;20045;-63
2022/07/31 00:15:06;;;;;;;2.53;1.30;;;;;;;22.17;45.64;100047.97;5015051;28;20057;-62
2022/07/31 00:17:33;;;;;;;6.55;1.65;;;;;;;22.12;45.35;100045.75;5015007;28;20050;-63
2022/07/31 00:20:00;;;;;;;3.00;1.45;;;;;;;22.06;45.68;100038.34;5014689;28;20057;-62
2022/07/31 00:22:27;;;;;;;3.67;1.70;;;;;;;22.01;45.50;100044.16;5014997;28;20053;-62
2022/07/31 00:24:54;;;;;;;4.22;1.80;;;;;;;21.98;45.64;100052.53;5014745;28;20056;-65
2022/07/31 00:27:20;;;;;;;1.83;1.27;;;;;;;21.95;45.57;100047.47;5014909;28;20444;-62
2022/07/31 00:29:47;;;;;;;4.50;1.30;;;;;;;21.93;45.91;100041.41;4997441;28;20049;-62
2022/07/31 00:32:14;;;;;;;3.95;1.42;;;;;;;21.91;46.50;100041.59;5014698;28;20060;-62
2022/07/31 00:34:43;;;;;;;2.35;1.40;;;;;;;21.90;46.55;100031.84;5014852;28;20497;-62
2022/07/31 00:37:10;;;;;;;3.67;1.33;;;;;;;21.90;46.25;100039.88;5014535;28;20413;-64
2022/07/31 00:39:37;;;;;;;1.50;1.20;;;;;;;21.90;46.33;100031.84;5014628;28;20061;-64
2022/07/31 00:42:04;;;;;;;2.65;1.58;;;;;;;21.91;46.64;100025.50;5014839;28;20068;-62
2022/07/31 00:44:31;;;;;;;3.58;1.63;;;;;;;21.93;46.42;100022.63;5014545;28;20096;-62
2022/07/31 00:46:58;;;;;;;4.80;1.50;;;;;;;21.94;46.85;100021.66;5014499;28;20452;-65
2022/07/31 00:49:27;;;;;;;3.75;1.60;;;;;;;21.96;46.80;100020.50;5014181;28;20077;-62
2022/07/31 00:52:04;;;;;;;4.28;1.60;;;;;;;21.97;46.66;100015.97;5014394;28;20057;-62
2022/07/31 00:54:31;;;;;;;3.75;1.63;;;;;;;22.00;46.37;100013.00;4996740;28;20397;-64
2022/07/31 00:56:58;;;;;;;5.63;2.20;;;;;;;22.02;46.82;100015.50;5014384;28;20053;-65
2022/07/31 00:59:27;;;;;;;5.15;1.80;;;;;;;22.03;47.00;100011.84;5014004;28;20052;-62
2022/07/31 01:01:54;;;;;;;3.83;1.85;;;;;;;22.05;46.89;100015.22;5014285;28;20413;-62
2022/07/31 01:04:21;;;;;;;2.67;1.73;;;;;;;22.06;46.96;100014.22;4996499;28;20045;-62
2022/07/31 01:06:48;;;;;;;2.92;1.60;;;;;;;22.08;47.34;100010.38;5014109;28;20694;-63
2022/07/31 01:09:15;;;;;;;4.45;2.08;;;;;;;22.11;47.23;100004.69;5013945;28;20053;-65
2022/07/31 01:12:07;;;;;;;5.65;2.05;;;;;;;22.11;47.55;100011.91;4996675;28;20460;-63
2022/07/31 01:14:37;;;;;;;6.22;1.92;;;;;;;22.14;47.13;100008.91;5013938;28;20046;-62
2022/07/31 01:17:07;;;;;;;3.88;1.77;;;;;;;22.17;47.25;100010.44;4995358;28;20057;-64
2022/07/31 01:19:40;;;;;;;3.35;1.60;;;;;;;22.17;48.01;100013.09;5013764;28;20148;-62
2022/07/31 01:22:08;;;;;;;2.75;1.60;;;;;;;22.21;47.13;100014.47;5014015;28;20092;-62
2022/07/31 01:24:55;;;;;;;3.10;1.70;;;;;;;22.20;47.46;100005.59;5013579;28;20053;-62
2022/07/31 01:27:28;;;;;;;3.97;1.70;;;;;;;22.21;47.60;100009.94;5013622;28;20077;-62
2022/07/31 01:30:00;;;;;;;4.22;1.70;;;;;;;22.21;47.77;100006.44;4996319;28;20057;-62
2022/07/31 01:32:32;;;;;;;2.75;1.70;;;;;;;22.21;47.72;100001.91;5013855;28;20406;-62
2022/07/31 01:35:02;;;;;;;1.98;1.48;;;;;;;22.23;47.87;100010.63;5013512;28;20065;-63
2022/07/31 01:37:33;;;;;;;2.33;1.50;;;;;;;22.24;47.80;100006.13;5013554;28;20069;-62
2022/07/31 01:40:04;;;;;;;2.45;1.65;;;;;;;22.24;48.06;100008.81;5013325;28;20046;-65
2022/07/31 01:42:35;;;;;;;3.88;2.08;;;;;;;22.23;47.85;100007.97;4996005;28;20057;-63
2022/07/31 01:45:05;;;;;;;4.60;2.10;;;;;;;22.25;47.58;100002.44;4995940;28;20489;-64
2022/07/31 01:47:34;;;;;;;5.57;2.05;;;;;;;22.25;47.66;100003.25;5013406;28;20100;-63
2022/07/31 01:50:03;;;;;;;2.50;1.58;;;;;;;22.25;47.43;99992.53;4995494;28;20056;-63
2022/07/31 01:52:32;;;;;;;2.47;1.70;;;;;;;22.26;47.35;100001.44;4996043;28;20192;-64
2022/07/31 01:55:00;;;;;;;5.35;1.88;;;;;;;22.25;47.41;99992.53;4995732;28;20273;-62
2022/07/31 01:57:28;;;;;;;3.28;2.03;;;;;;;22.25;47.62;99989.84;5013550;28;20520;-62
2022/07/31 01:59:59;;;;;;;6.38;2.45;;;;;;;22.25;47.91;99994.41;4995437;28;20508;-63
2022/07/31 02:02:28;;;;;;;6.22;2.05;;;;;;;22.26;47.69;99993.38;5013107;28;20054;-64
2022/07/31 02:04:57;;;;;;;5.78;2.15;;;;;;;22.23;47.80;99999.91;4995640;28;20417;-62
2022/07/31 02:07:24;;;;;;;2.83;1.90;;;;;;;22.21;47.46;99999.22;4995476;28;20053;-62
2022/07/31 02:09:53;;;;;;;7.57;1.60;;;;;;;22.18;47.52;99991.50;5012764;28;20493;-63
2022/07/31 02:12:26;;;;;;;6.72;2.30;;;;;;;22.13;47.48;99986.59;4996370;28;20486;-65
2022/07/31 02:15:04;;;;;;;3.95;1.70;;;;;;;22.08;47.87;99986.25;4996616;28;20417;-64
2022/07/31 02:17:31;;;;;;;2.88;1.70;;;;;;;22.04;47.87;99975.97;5013019;28;20053;-63
2022/07/31 02:20:00;;;;;;;3.45;2.10;;;;;;;22.00;47.75;99973.63;5012442;28;20053;-62
2022/07/31 02:22:28;;;;;;;2.65;1.65;;;;;;;21.95;47.92;99970.59;4995423;28;20069;-62
2022/07/31 02:24:55;;;;;;;3.38;1.70;;;;;;;21.90;47.92;99967.50;4995289;28;20079;-64
2022/07/31 02:27:24;;;;;;;7.13;1.85;;;;;;;21.84;48.26;99968.16;5012754;28;20053;-62
2022/07/31 02:30:11;;;;;;;7.75;2.10;;;;;;;21.81;47.97;99968.47;4997502;28;20056;-62
2022/07/31 02:32:39;;;;;;;3.05;1.90;;;;;;;21.77;48.12;99967.09;5012335;28;20053;-62
2022/07/31 02:35:07;;;;;;;3.33;2.05;;;;;;;21.71;48.38;99958.66;5012264;28;20133;-63
2022/07/31 02:37:36;;;;;;;2.47;2.13;;;;;;;21.66;48.62;99958.28;4995225;28;20413;-62
2022/07/31 02:40:06;;;;;;;3.05;2.15;;;;;;;21.63;48.44;99961.25;4994534;28;20084;-66
2022/07/31 02:42:33;;;;;;;4.45;2.47;;;;;;;21.59;48.44;99959.88;5012516;28;20481;-64
2022/07/31 02:45:01;;;;;;;3.13;2.10;;;;;;;21.55;48.68;99956.69;4994914;28;20050;-62
2022/07/31 02:47:28;;;;;;;10.00;2.40;;;;;;;21.53;48.73;99952.47;5012425;28;20081;-62
2022/07/31 02:49:56;;;;;;;4.95;2.15;;;;;;;21.50;48.82;99953.63;5011936;28;20543;-63
2022/07/31 02:52:24;;;;;;;3.25;2.03;;;;;;;21.48;48.70;99951.09;5012297;28;20046;-66
2022/07/31 02:54:51;;;;;;;5.45;2.05;;;;;;;21.45;48.54;99948.72;5012237;28;20096;-62
2022/07/31 02:57:18;;;;;;;4.93;2.58;;;;;;;21.44;48.78;99946.19;5012399;28;20045;-62
2022/07/31 02:59:45;;;;;;;4.05;2.35;;;;;;;21.42;48.66;99953.56;5012356;28;20069;-62
2022/07/31 03:02:12;;;;;;;5.47;2.95;;;;;;;21.39;49.01;99953.84;5012177;28;20054;-64
2022/07/31 03:04:38;;;;;;;5.03;2.78;;;;;;;21.38;49.08;99953.00;5012241;28;20409;-63
2022/07/31 03:07:05;;;;;;;4.05;2.70;;;;;;;21.35;49.23;99954.16;5011893;28;20097;-63
2022/07/31 03:09:31;;;;;;;5.22;2.72;;;;;;;21.35;49.30;99959.50;4994511;28;20065;-65
2022/07/31 03:11:58;;;;;;;5.03;3.20;;;;;;;21.34;49.74;99951.63;5011710;28;20060;-63
2022/07/31 03:14:31;;;;;;;4.95;2.65;;;;;;;21.32;49.74;99954.50;4995358;28;20085;-63
2022/07/31 03:16:59;;;;;;;7.03;3.15;;;;;;;21.33;49.59;99955.31;5011818;28;20053;-62
2022/07/31 03:19:27;;;;;;;5.95;3.33;;;;;;;21.31;50.10;99955.47;4994103;28;20068;-66
2022/07/31 03:21:55;;;;;;;10.23;3.28;;;;;;;21.33;49.90;99960.66;5011425;28;20076;-63
2022/07/31 03:24:23;;;;;;;6.00;2.63;;;;;;;21.31;50.04;99949.28;4994281;28;20081;-63
2022/07/31 03:26:50;;;;;;;3.75;2.85;;;;;;;21.31;50.08;99952.78;5011583;28;20053;-62
2022/07/31 03:29:16;;;;;;;4.03;3.15;;;;;;;21.30;49.85;99956.47;5011871;28;20050;-63
2022/07/31 03:32:04;;;;;;;3.25;2.40;;;;;;;21.30;49.92;99955.63;5011400;28;20096;-62
2022/07/31 03:34:32;;;;;;;3.67;2.55;;;;;;;21.28;49.94;99952.25;4994038;28;20103;-63
2022/07/31 03:36:59;;;;;;;4.85;3.15;;;;;;;21.26;50.21;99951.59;4994117;28;20404;-62
2022/07/31 03:39:25;;;;;;;5.55;3.13;;;;;;;21.25;50.05;99948.06;5011142;28;20053;-63
2022/07/31 03:41:55;;;;;;;4.65;3.05;;;;;;;21.22;50.62;99948.34;5010885;28;20062;-62
2022/07/31 03:44:23;;;;;;;6.00;3.20;;;;;;;21.21;50.47;99942.16;4993923;28;20061;-62
2022/07/31 03:46:50;;;;;;;5.97;3.25;;;;;;;21.20;50.50;99945.81;4993662;28;20532;-62
2022/07/31 03:49:17;;;;;;;7.22;3.72;;;;;;;21.19;50.66;99945.97;4993827;28;20058;-62
2022/07/31 03:51:44;;;;;;;4.63;3.42;;;;;;;21.17;50.73;99935.44;5011274;28;20097;-62
2022/07/31 03:54:10;;;;;;;6.10;3.50;;;;;;;21.16;50.67;99946.28;5011346;28;20065;-62
2022/07/31 03:56:39;;;;;;;5.22;3.65;;;;;;;21.14;50.97;99943.75;5011191;28;20072;-63
2022/07/31 03:59:11;;;;;;;5.53;3.60;;;;;;;21.15;50.74;99941.94;4994178;28;20061;-62
2022/07/31 04:01:39;;;;;;;6.03;3.63;;;;;;;21.15;51.08;99933.91;4993776;28;20050;-63
2022/07/31 04:04:26;;;;;;;7.13;4.10;;;;;;;21.15;51.25;99932.06;5011590;28;20070;-63
2022/07/31 04:06:53;;;;;;;4.45;3.60;;;;;;;21.17;51.27;99932.75;5011077;28;20129;-64
2022/07/31 04:09:19;;;;;;;5.28;3.70;;;;;;;21.18;51.42;99931.75;5010983;28;20445;-62
2022/07/31 04:11:46;;;;;;;7.47;4.05;;;;;;;21.19;51.48;99920.06;5011041;28;20054;-62
2022/07/31 04:14:13;;;;;;;5.63;3.47;;;;;;;21.22;51.42;99924.25;5011368;28;20146;-62
2022/07/31 04:16:39;;;;;;;5.78;3.22;;;;;;;21.25;51.30;99926.63;5011323;28;20057;-65
2022/07/31 04:19:06;;;;;;;5.07;3.50;;;;;;;21.27;51.38;99921.13;5010749;28;20049;-63
2022/07/31 04:21:32;;;;;;;5.88;3.38;;;;;;;21.30;51.21;99926.19;5010928;28;20046;-62
2022/07/31 04:24:00;;;;;;;6.13;3.72;;;;;;;21.33;51.27;99923.19;5010808;28;20046;-64
2022/07/31 04:26:28;;;;;;;7.95;3.42;;;;;;;21.36;51.16;99928.25;4993429;28;20046;-62
2022/07/31 04:28:54;;;;;;;5.45;3.20;;;;;;;21.40;50.62;99923.41;4993414;28;20053;-63
2022/07/31 04:31:22;;;;;;;5.53;3.10;;;;;;;21.43;50.82;99921.28;5011042;28;20057;-61
2022/07/31 04:33:49;;;;;;;4.38;2.40;;;;;;;21.46;50.62;99922.81;5011023;28;20054;-62
2022/07/31 04:36:22;;;;;;;6.72;3.08;;;;;;;21.52;50.36;99924.03;5010960;28;20046;-64
2022/07/31 04:38:57;;;;;;;5.20;2.85;;;;;;;21.55;50.51;99929.91;5010590;28;20077;-63
2022/07/31 04:41:24;;;;;;;6.55;2.95;;;;;;;21.59;50.23;99914.34;4993666;28;20050;-63
2022/07/31 04:43:50;;;;;;;3.55;2.70;;;;;;;21.64;50.48;99921.94;5010893;28;20061;-65
2022/07/31 04:46:17;;;;;;;3.85;2.72;;;;;;;21.67;50.46;99930.50;5010894;28;20069;-63
2022/07/31 04:48:44;;;;;;;4.30;2.75;;;;;;;21.73;50.34;99929.06;5010601;28;20054;-63
2022/07/31 04:51:18;;;;;;;3.90;2.50;;;;;;;21.77;50.58;99925.06;5011290;28;20092;-62
2022/07/31 04:53:45;;;;;;;6.60;3.08;;;;;;;21.86;50.35;99928.63;4997080;28;20049;-63
2022/07/31 04:58:59;;;;;;;4.57;2.90;;;;;;;21.97;50.34;99917.66;5014173;28;20058;-62
2022/07/31 05:01:26;;;;;;;3.72;2.40;;;;;;;22.05;50.23;99918.72;5014302;28;20058;-62
2022/07/31 05:03:53;;;;;;;5.88;3.00;;;;;;;22.12;50.14;99917.91;5013964;28;20056;-63
2022/07/31 05:06:19;;;;;;;5.15;2.78;;;;;;;22.17;50.00;99914.78;4996797;28;20050;-62
2022/07/31 05:08:46;;;;;;;4.85;2.78;;;;;;;22.22;50.10;99917.81;5013843;28;20049;-61
2022/07/31 05:11:21;;;;;;;4.07;2.67;;;;;;;22.28;49.92;99923.53;5014057;28;20445;-70
2022/07/31 05:14:01;;;;;;;6.00;2.65;;;;;;;22.30;49.79;99935.75;4996564;28;20071;-81
2022/07/31 05:16:29;;;;;;;3.53;2.20;;;;;;;22.39;49.64;99928.63;5014055;28;20054;-71
2022/07/31 05:18:56;;;;;;;13.82;2.75;;;;;;;22.45;49.51;99921.75;5013807;28;20060;-62
2022/07/31 05:21:25;;;;;;;5.38;2.45;;;;;;;22.47;49.13;99925.94;5013718;28;20054;-64
2022/07/31 05:23:54;;;;;;;5.75;2.30;;;;;;;22.52;48.87;99922.78;5013654;28;20058;-62
2022/07/31 05:26:21;;;;;;;4.10;2.67;;;;;;;22.57;48.73;99930.38;5012439;28;20042;-64
2022/07/31 05:28:49;;;;;;;5.50;1.88;;;;;;;22.60;48.44;99924.69;4995843;28;20504;-62
2022/07/31 05:31:20;;;;;;;3.63;2.10;;;;;;;22.64;48.69;99921.53;4997387;28;20046;-62
2022/07/31 05:33:49;;;;;;;3.08;1.92;;;;;;;22.67;48.17;99920.34;5013924;28;20057;-63
2022/07/31 05:36:16;;;;;;;6.35;2.10;;;;;;;22.72;48.10;99918.00;4996302;28;20370;-63
2022/07/31 05:38:43;;;;;;;4.07;1.70;;;;;;;22.75;48.39;99900.75;4995362;28;20057;-63
2022/07/31 05:41:10;;;;;;;4.85;1.80;;;;;;;22.80;48.11;99919.06;5013321;28;20057;-62
2022/07/31 05:43:37;;;;;;;4.97;2.13;;;;;;;22.83;47.55;99910.69;5013338;28;20045;-64
2022/07/31 05:46:05;;;;;;;4.45;1.65;;;;;;;22.88;46.99;99911.03;5013675;28;20054;-63
2022/07/31 05:48:31;;;;;;;2.20;1.45;;;;;;;22.92;46.94;99909.69;5013648;28;20123;-64
2022/07/31 05:50:58;;;;;;;4.22;1.65;;;;;;;22.98;47.18;99894.75;5013595;28;20081;-62
2022/07/31 05:53:30;;;;;;;4.25;1.95;;;;;;;23.03;46.87;99901.31;5013667;28;20085;-62
2022/07/31 05:55:57;;;;;;;5.25;1.58;;;;;;;23.11;46.88;99899.63;5013311;28;20053;-63
2022/07/31 05:58:24;;;;;;;2.13;1.60;;;;;;;23.17;46.49;99896.28;5013354;28;20057;-62
2022/07/31 06:00:50;;;;;;;3.58;1.58;;;;;;;23.23;46.23;99884.88;5013367;28;20058;-63
2022/07/31 06:03:22;;;;;;;3.10;1.40;;;;;;;23.28;45.99;99893.28;5012603;28;20057;-62
2022/07/31 06:05:50;;;;;;;2.00;1.35;;;;;;;23.37;46.15;99883.41;4995859;28;20087;-64
2022/07/31 06:08:17;;;;;;;2.78;1.73;;;;;;;23.43;45.65;99881.88;5013029;28;20049;-62
2022/07/31 06:10:44;;;;;;;2.47;1.50;;;;;;;23.49;45.57;99886.59;4995096;28;20049;-66
2022/07/31 06:13:12;;;;;;;1.90;1.30;;;;;;;23.53;45.50;99887.94;5012374;28;20155;-66
2022/07/31 06:15:39;;;;;;;5.05;1.67;;;;;;;23.58;44.88;99887.41;5013022;28;20042;-62
2022/07/31 06:18:14;;;;;;;2.13;1.13;;;;;;;23.61;44.74;99900.50;5012725;28;20054;-63
2022/07/31 06:20:41;;;;;;;3.40;1.23;;;;;;;23.66;45.29;99897.31;5012590;28;20060;-63
2022/07/31 06:23:08;;;;;;;2.50;1.10;;;;;;;23.67;44.62;99894.44;5012810;28;20129;-63
2022/07/31 06:25:48;;;;;;;4.70;1.52;;;;;;;23.72;44.43;99893.09;5012857;28;20053;-66
2022/07/31 06:28:15;;;;;;;2.63;1.45;;;;;;;23.74;44.83;99897.28;5012954;28;20041;-62
2022/07/31 06:30:42;;;;;;;3.50;1.50;;;;;;;23.79;44.56;99886.03;5012340;28;20054;-64
2022/07/31 06:33:09;;;;;;;1.75;1.10;;;;;;;23.84;44.57;99889.03;5012653;28;20053;-62
2022/07/31 06:35:45;;;;;;;1.48;1.33;;;;;;;23.90;44.48;99892.91;4996464;28;20042;-63
2022/07/31 06:38:12;;;;;;;1.48;1.23;;;;;;;23.96;44.18;99881.47;5012140;28;20701;-63
2022/07/31 06:40:38;;;;;;;2.92;1.33;;;;;;;24.02;44.21;99880.75;4994965;28;20445;-63
2022/07/31 06:43:05;;;;;;;4.90;1.50;;;;;;;24.11;44.19;99878.09;5012692;28;20053;-63
2022/07/31 06:45:32;;;;;;;4.60;1.20;;;;;;;24.18;44.13;99879.06;5011975;28;20127;-64
2022/07/31 06:48:17;;;;;;;3.78;1.20;;;;;;;24.27;44.06;99878.03;5012570;28;20474;-64
2022/07/31 06:50:44;;;;;;;1.70;1.15;;;;;;;24.36;43.36;99883.38;5011887;28;20432;-63
2022/07/31 06:53:11;;;;;;;4.50;1.20;;;;;;;24.41;42.72;99883.69;5011970;28;20060;-61
2022/07/31 06:55:38;;;;;;;4.05;1.35;;;;;;;24.45;43.07;99877.75;5011910;28;20486;-62
2022/07/31 06:58:10;;;;;;;3.13;1.42;;;;;;;24.50;42.86;99873.69;5012243;28;20137;-63
2022/07/31 07:00:37;;;;;;;2.08;1.35;;;;;;;24.54;42.64;99875.03;5011690;28;20058;-64
2022/07/31 07:03:03;;;;;;;2.13;1.33;;;;;;;24.56;42.48;99889.16;5011824;28;20060;-63
2022/07/31 07:05:30;;;;;;;2.10;1.35;;;;;;;24.59;42.75;99881.56;5012016;28;20489;-63
2022/07/31 07:07:57;;;;;;;2.63;1.60;;;;;;;24.62;42.58;99874.97;5012177;28;20053;-65
2022/07/31 07:10:23;;;;;;;8.15;1.60;;;;;;;24.66;42.42;99872.75;5011761;28;20057;-64
2022/07/31 07:12:50;;;;;;;5.57;1.83;;;;;;;24.68;42.35;99882.38;4994519;28;20054;-63
2022/07/31 07:15:19;;;;;;;4.22;2.15;;;;;;;24.70;42.30;99882.16;5010782;28;20108;-64
2022/07/31 07:17:46;;;;;;;3.30;1.77;;;;;;;24.72;42.54;99869.38;5012194;28;20057;-63
2022/07/31 07:20:12;;;;;;;5.03;2.13;;;;;;;24.72;42.46;99867.53;5011432;28;20058;-63
2022/07/31 07:22:39;;;;;;;2.05;1.85;;;;;;;24.72;42.56;99861.31;5011300;28;20061;-66
2022/07/31 07:25:06;;;;;;;2.17;1.83;;;;;;;24.70;42.42;99858.78;5011453;28;20132;-63
2022/07/31 07:27:32;;;;;;;3.00;2.17;;;;;;;24.71;42.42;99863.16;5011152;28;20042;-64
2022/07/31 07:29:59;;;;;;;3.08;1.98;;;;;;;24.70;42.65;99861.47;5011332;28;20046;-65
2022/07/31 07:32:26;;;;;;;3.97;2.15;;;;;;;24.71;42.98;99859.63;4977744;28;20057;-64
2022/07/31 07:34:53;;;;;;;3.50;1.98;;;;;;;24.72;42.84;99843.31;5011442;28;20512;-63
2022/07/31 07:37:26;;;;;;;;;;;;;;;24.74;43.09;99840.41;5011935;28;20054;-63
2022/07/31 07:39:52;;;;;;;2.72;1.80;;;;;;;24.85;43.18;99840.03;5011348;28;19921;-63
2022/07/31 07:42:19;;;;;;;3.08;1.92;;;;;;;24.89;42.94;99842.38;5011239;28;20048;-63
2022/07/31 07:44:46;;;;;;;4.75;2.35;;;;;;;24.92;42.66;99836.63;5011598;28;20463;-64
2022/07/31 07:47:12;;;;;;;4.75;2.20;;;;;;;24.93;42.90;99839.13;5011143;28;20057;-63
2022/07/31 07:49:39;;;;;;;4.88;2.40;;;;;;;24.94;43.11;99840.84;5011188;28;20053;-62
2022/07/31 07:52:06;;;;;;;3.20;2.40;;;;;;;24.94;43.04;99840.84;5011504;28;20054;-63
2022/07/31 07:54:32;;;;;;;3.17;2.50;;;;;;;24.93;42.86;99831.06;5011323;28;20072;-63
2022/07/31 07:56:59;;;;;;;3.38;2.33;;;;;;;24.92;43.23;99842.00;5011254;28;20042;-64
2022/07/31 07:59:26;;;;;;;5.50;2.55;;;;;;;24.91;43.01;99829.56;5011325;28;20042;-65
2022/07/31 08:01:52;;;;;;;3.55;2.55;;;;;;;24.90;42.90;99834.13;5011446;28;20057;-63
2022/07/31 08:04:19;;;;;;;2.83;2.25;;;;;;;24.90;42.78;99834.13;5011518;28;20064;-64
2022/07/31 08:06:46;;;;;;;5.15;2.58;;;;;;;24.89;42.80;99828.91;5011318;28;20052;-62
2022/07/31 08:09:12;;;;;;;5.57;2.50;;;;;;;24.89;42.97;99827.03;5011151;28;20060;-63
2022/07/31 08:11:39;;;;;;;5.07;2.70;;;;;;;24.90;43.19;99825.19;4993557;28;20413;-63
2022/07/31 08:14:06;;;;;;;5.45;2.65;;;;;;;24.92;43.61;99825.84;5011093;28;20046;-63
2022/07/31 08:16:33;;;;;;;4.70;2.50;;;;;;;24.93;43.45;99828.38;5011398;28;20073;-65
2022/07/31 08:18:59;;;;;;;3.33;2.58;;;;;;;24.96;43.96;99828.00;5011149;28;20057;-63
2022/07/31 08:21:26;;;;;;;2.97;2.53;;;;;;;25.00;43.73;99828.47;5011440;28;20053;-63
2022/07/31 08:23:53;;;;;;;5.45;3.47;;;;;;;25.04;43.74;99827.09;5011112;28;20460;-63
2022/07/31 08:26:19;;;;;;;3.65;2.65;;;;;;;25.09;43.54;99830.09;5011655;28;20049;-63
2022/07/31 08:28:46;;;;;;;10.77;3.33;;;;;;;25.14;43.27;99828.69;5015234;28;20050;-62
2022/07/31 08:31:18;;;;;;;4.80;3.33;;;;;;;25.19;43.36;99834.41;5015118;28;20046;-62
2022/07/31 08:33:44;;;;;;;3.55;3.10;;;;;;;25.24;43.63;99827.44;5014970;28;20046;-65
2022/07/31 08:36:11;;;;;;;5.05;3.38;;;;;;;25.28;43.25;99825.22;5015059;28;20054;-63
2022/07/31 08:38:38;;;;;;;6.72;3.55;;;;;;;25.34;43.92;99829.06;5014496;28;20056;-63
2022/07/31 08:41:05;;;;;;;7.15;3.83;;;;;;;25.37;43.81;99834.91;5015054;28;20055;-64
2022/07/31 08:43:32;;;;;;;7.55;4.07;;;;;;;25.42;43.41;99836.22;4997322;28;20046;-63
2022/07/31 08:46:19;;;;;;;4.35;3.35;;;;;;;25.47;43.51;99849.97;5014722;28;20551;-64
2022/07/31 08:48:48;;;;;;;6.82;3.30;;;;;;;25.51;43.23;99845.88;4996924;28;20493;-62
2022/07/31 08:51:16;;;;;;;6.38;3.65;;;;;;;25.54;43.14;99842.81;4997192;28;20104;-63
2022/07/31 08:53:43;;;;;;;5.65;3.75;;;;;;;25.57;43.54;99849.72;4997280;28;20057;-62
2022/07/31 08:56:11;;;;;;;6.13;3.53;;;;;;;25.61;43.47;99841.06;4997298;28;20057;-63
2022/07/31 08:58:38;;;;;;;5.43;3.47;;;;;;;25.66;43.32;99843.22;5014022;28;20050;-63
2022/07/31 09:01:07;;;;;;;5.05;3.65;;;;;;;25.71;43.36;99837.31;5014268;28;20552;-65
2022/07/31 09:03:34;;;;;;;4.97;3.50;;;;;;;25.79;43.82;99842.56;4996859;28;20409;-62
2022/07/31 09:06:03;;;;;;;5.60;4.22;;;;;;;25.87;43.08;99844.34;4997091;28;20535;-63
2022/07/31 09:08:36;;;;;;;6.10;3.45;;;;;;;25.93;43.14;99840.91;4996242;28;20445;-65
2022/07/31 09:11:05;;;;;;;5.70;3.25;;;;;;;26.01;43.13;99848.06;5014455;28;20404;-62
2022/07/31 09:13:36;;;;;;;5.03;3.53;;;;;;;26.07;43.25;99839.22;4996448;28;20112;-63
2022/07/31 09:16:03;;;;;;;9.38;3.50;;;;;;;26.14;42.93;99845.56;4996473;28;20099;-63
2022/07/31 09:18:30;;;;;;;7.07;3.72;;;;;;;26.18;42.75;99839.75;4996739;28;20393;-64
2022/07/31 09:21:03;;;;;;;6.88;4.15;;;;;;;26.19;42.11;99842.28;5014005;28;20104;-63
2022/07/31 09:23:31;;;;;;;6.68;3.83;;;;;;;26.24;42.23;99841.72;4996369;28;20053;-63
2022/07/31 09:26:00;;;;;;;6.88;4.03;;;;;;;26.25;41.83;99846.94;5013736;28;20057;-62
2022/07/31 09:28:34;;;;;;;6.63;3.20;;;;;;;26.23;43.86;99834.63;4995739;28;20057;-62
2022/07/31 09:31:03;;;;;;;5.63;3.83;;;;;;;26.30;42.59;99832.88;4996190;28;20136;-62
2022/07/31 09:33:31;;;;;;;6.18;3.72;;;;;;;26.35;42.71;99835.84;5013816;28;20482;-63
2022/07/31 09:35:59;;;;;;;6.43;3.30;;;;;;;26.41;42.70;99832.41;5013842;28;20049;-66
2022/07/31 09:38:34;;;;;;;7.18;3.25;;;;;;;26.46;42.61;99836.41;5012385;28;20060;-62
2022/07/31 09:41:10;;;;;;;6.50;3.20;;;;;;;26.51;42.40;99833.97;4996225;28;20108;-62
2022/07/31 09:44:01;;;;;;;3.95;2.85;;;;;;;26.62;42.54;99838.88;4999072;28;20077;-63
2022/07/31 09:46:46;;;;;;;7.45;3.25;;;;;;;26.66;42.02;99831.22;5013583;28;20052;-63
2022/07/31 09:49:14;;;;;;;5.30;2.67;;;;;;;26.72;42.62;99830.44;4995830;28;20492;-63
2022/07/31 09:51:42;;;;;;;4.47;3.05;;;;;;;26.77;42.57;99825.28;5013448;28;20049;-65
2022/07/31 09:54:24;;;;;;;7.72;3.40;;;;;;;26.77;42.71;99822.59;5013584;28;20054;-63
2022/07/31 09:56:51;;;;;;;5.07;3.58;;;;;;;26.86;42.35;99823.31;5013499;28;20057;-64
2022/07/31 09:59:18;;;;;;;6.93;4.10;;;;;;;26.92;42.07;99829.81;5013053;28;20096;-64
2022/07/31 10:01:49;;;;;;;5.57;4.30;;;;;;;26.97;42.21;99827.38;5013404;28;20057;-64
2022/07/31 10:04:17;;;;;;;5.93;4.50;;;;;;;27.02;41.86;99824.09;5013450;28;20046;-70
2022/07/31 10:06:50;;;;;;;8.40;4.43;;;;;;;27.03;41.21;99823.06;4995717;28;20085;-62
2022/07/31 10:09:18;;;;;;;8.32;5.03;;;;;;;27.06;42.24;99825.41;5013054;28;20050;-62
2022/07/31 10:11:48;;;;;;;7.15;4.90;;;;;;;27.09;41.93;99830.38;4995624;28;20497;-63
2022/07/31 10:14:26;;;;;;;7.07;4.65;;;;;;;27.10;41.52;99826.66;4995442;28;20065;-66
2022/07/31 10:16:57;;;;;;;7.80;3.72;;;;;;;27.14;41.69;99827.94;4995699;28;20058;-61
2022/07/31 10:19:30;;;;;;;6.70;4.65;;;;;;;27.19;41.98;99832.75;5012660;28;20052;-61
2022/07/31 10:22:00;;;;;;;;;;;;;;;27.22;42.27;99832.38;4995927;28;20072;-65
2022/07/31 10:24:31;;;;;;;7.63;5.22;;;;;;;27.31;41.65;99828.50;4995392;28;19921;-62
2022/07/31 10:26:59;;;;;;;5.90;4.32;;;;;;;27.37;41.97;99829.59;4995228;28;20042;-62
2022/07/31 10:29:37;;;;;;;6.80;5.00;;;;;;;27.41;41.55;99830.84;5012773;28;20077;-62
2022/07/31 10:32:05;;;;;;;8.15;6.25;;;;;;;27.44;41.68;99827.75;5012757;28;20046;-63
2022/07/31 10:34:33;;;;;;;10.00;6.07;;;;;;;27.45;40.83;99826.72;4995247;28;20041;-62
2022/07/31 10:37:13;;;;;;;8.82;6.00;;;;;;;27.36;40.76;99818.97;4979410;28;20054;-62
2022/07/31 10:39:52;;;;;;;5.35;4.82;;;;;;;27.29;40.70;99816.22;5012527;28;20042;-62
2022/07/31 10:42:30;;;;;;;8.40;5.60;;;;;;;27.26;40.91;99814.75;4995178;28;20046;-62
2022/07/31 10:45:09;;;;;;;9.63;5.30;;;;;;;27.14;41.09;99806.31;5012563;28;20054;-62
2022/07/31 10:47:35;;;;;;;6.20;5.32;;;;;;;27.15;41.55;99807.16;4995093;28;20054;-62
2022/07/31 10:50:03;;;;;;;9.18;4.97;;;;;;;27.13;41.70;99812.75;5011793;28;20053;-62
2022/07/31 10:52:35;;;;;;;7.30;5.65;;;;;;;27.09;41.41;99813.34;5012551;28;20094;-63
2022/07/31 10:55:24;;;;;;;5.63;5.03;;;;;;;27.05;41.30;99815.59;4995089;28;20145;-63
2022/07/31 10:57:51;;;;;;;7.57;4.60;;;;;;;27.09;41.17;99814.19;5012526;28;20053;-62
2022/07/31 11:00:25;;;;;;;5.90;5.15;;;;;;;27.03;40.74;99804.16;5012004;28;20052;-65
2022/07/31 11:02:55;;;;;;;7.70;6.03;;;;;;;26.99;41.06;99800.19;4995458;28;20112;-62
2022/07/31 11:05:23;;;;;;;8.35;6.07;;;;;;;26.92;41.19;99803.59;5012187;28;20688;-65
2022/07/31 11:08:04;;;;;;;8.25;6.45;;;;;;;26.83;41.44;99801.25;4994630;28;20046;-62
2022/07/31 11:10:32;;;;;;;10.23;6.65;;;;;;;26.82;41.92;99795.00;5011912;28;20050;-62
2022/07/31 11:13:00;;;;;;;8.55;5.93;;;;;;;26.78;42.75;99799.97;4994604;28;20054;-63
2022/07/31 11:15:27;;;;;;;9.48;6.32;;;;;;;26.77;42.66;99794.75;5012182;28;20061;-63
2022/07/31 11:17:55;;;;;;;10.55;5.53;;;;;;;26.75;43.30;99792.25;4994628;28;20053;-67
2022/07/31 11:20:45;;;;;;;9.35;6.80;;;;;;;26.77;43.14;99790.19;5012206;28;20046;-63
2022/07/31 11:23:15;;;;;;;12.38;6.78;;;;;;;26.79;43.01;99781.88;5011840;28;20096;-62
2022/07/31 11:25:45;;;;;;;10.00;6.60;;;;;;;26.83;42.93;99785.88;4994524;28;20050;-62
2022/07/31 11:28:15;;;;;;;7.53;6.10;;;;;;;26.88;43.52;99788.00;4978236;28;20120;-61
2022/07/31 11:31:05;;;;;;;7.65;5.70;;;;;;;26.89;43.47;99784.28;4994424;28;20046;-64
2022/07/31 11:33:35;;;;;;;9.02;6.55;;;;;;;27.00;43.00;99782.94;5011720;28;20049;-62
2022/07/31 11:36:18;;;;;;;8.82;6.55;;;;;;;27.04;43.17;99779.66;5011652;28;20050;-63
2022/07/31 11:38:48;;;;;;;7.05;6.10;;;;;;;27.11;42.82;99782.41;4994025;28;20046;-63
2022/07/31 11:41:16;;;;;;;9.05;6.15;;;;;;;27.19;43.66;99781.41;5011611;28;20065;-65
2022/07/31 11:43:50;;;;;;;6.00;5.35;;;;;;;27.29;43.95;99781.91;5010591;28;20061;-65